Aérodrome :
LOGIN :

S'inscrire | Disclaimer

   EN    FR    IT 

 










Légende :    VFR   VFR Marginal   IFR   IFR Intensif   IFR Très Intensif
Visi : 
Plafond : 
>= 8 km
>= 3000ft
5 à 8 km
1000 à 3000 ft
1500m à 5 km
500 à 1000 ft
800 à 1500m
200 à 500 ft
< 800m
< 200 ft
Symboles :   Orages  Brouillard  Fortes neiges  Fortes précipitations  Vent > 20 kt
SIGMETs :   Divers  Orages  Givrage  Turbulence  Onde Orograph.  Cendres Volcan.






- Altitude de l'aérodrome : 876 ft
- Code IATA : MBX


LJMB - Maribor

DERNIER METAR :
  • 111500Z 35013KT 9999 -TSRA FEW026CB SCT040 OVC050 16/15 Q1019

METARs EXPIRÉS :
  • 111430Z 34016KT 9999 -SHRA FEW026TCU OVC040 17/15 Q1018
  • 111400Z 34014KT 9999 FEW026TCU OVC040 19/14 Q1019
  • 111330Z 35016G27KT 9999 FEW026 BKN040 OVC100 19/14 Q1018
  • 111230Z 36008KT 9999 FEW043 SCT130 OVC200 25/17 Q1016

TAF TAF LJMB
Valide du 11 à 12h jusqu'au 12 à 12h UTC


111100Z 1112/1212 36010G25KT 9999 SCT050
TEMPO 1112/1118 01020G40KT 5000 TSRA BKN045CB
PROB40
TEMPO 1112/1115 2000 +TSRA OVC017CB
BECMG 1114/1116 RA
PROB40
TEMPO 1116/1206 OVC015
BECMG 1122/1124 NSW



MET'MAP, la Météo Aéronautique d'un coup d'oeil ! - Copyright ORBIFLY Décembre 2007 - Disclaimer

ORBIFLY MET'MAP TEAM :

Programmation & Développement : Alexandra Zaïnal
Sur une idée originale de : Baudouin d'Aumeries
Assistance à la programmation : Marc-Olivier Méhu
Soutien technique & logistique : Manuel Goepfert

Contact : metmap@orbifly.com




SOURCES & CREDITS :

   NOAA